sensor_id;sensor_type;location;lat;lon;timestamp;pressure;altitude;pressure_sealevel;temperature;humidity
59757;BME280;45631;51.962;5.974;2023-03-26T00:01:21;100548.34;;;7.03;100.00
59757;BME280;45631;51.962;5.974;2023-03-26T00:03:51;100552.66;;;7.04;100.00
59757;BME280;45631;51.962;5.974;2023-03-26T00:06:22;100552.66;;;7.04;100.00
59757;BME280;45631;51.962;5.974;2023-03-26T00:08:52;100552.47;;;7.07;100.00
59757;BME280;45631;51.962;5.974;2023-03-26T00:11:21;100555.00;;;7.08;100.00
59757;BME280;45631;51.962;5.974;2023-03-26T00:13:51;100552.47;;;7.07;100.00
59757;BME280;45631;51.962;5.974;2023-03-26T00:16:23;100551.47;;;7.09;100.00
59757;BME280;45631;51.962;5.974;2023-03-26T00:18:52;100548.75;;;7.11;100.00
59757;BME280;45631;51.962;5.974;2023-03-26T00:21:21;100547.75;;;7.14;100.00
59757;BME280;45631;51.962;5.974;2023-03-26T00:23:53;100544.22;;;7.15;100.00
59757;BME280;45631;51.962;5.974;2023-03-26T00:26:22;100539.81;;;7.15;100.00
59757;BME280;45631;51.962;5.974;2023-03-26T00:28:51;100537.19;;;7.15;100.00
59757;BME280;45631;51.962;5.974;2023-03-26T00:31:20;100533.66;;;7.16;100.00
59757;BME280;45631;51.962;5.974;2023-03-26T00:33:50;100529.25;;;7.17;100.00
59757;BME280;45631;51.962;5.974;2023-03-26T00:36:21;100526.66;;;7.17;100.00
59757;BME280;45631;51.962;5.974;2023-03-26T00:38:51;100525.72;;;7.18;100.00
59757;BME280;45631;51.962;5.974;2023-03-26T00:41:22;100528.16;;;7.21;100.00
59757;BME280;45631;51.962;5.974;2023-03-26T00:43:54;100517.50;;;7.24;100.00
59757;BME280;45631;51.962;5.974;2023-03-26T00:46:24;100516.69;;;7.23;100.00
59757;BME280;45631;51.962;5.974;2023-03-26T00:48:52;100513.97;;;7.25;100.00
59757;BME280;45631;51.962;5.974;2023-03-26T00:51:25;100507.91;;;7.24;100.00
59757;BME280;45631;51.962;5.974;2023-03-26T00:53:54;100510.44;;;7.26;100.00
59757;BME280;45631;51.962;5.974;2023-03-26T00:56:24;100507.81;;;7.26;100.00
59757;BME280;45631;51.962;5.974;2023-03-26T00:58:54;100504.38;;;7.25;100.00
59757;BME280;45631;51.962;5.974;2023-03-26T01:01:25;100500.81;;;7.26;100.00
59757;BME280;45631;51.962;5.974;2023-03-26T01:03:56;100488.69;;;7.25;100.00
59757;BME280;45631;51.962;5.974;2023-03-26T01:06:36;100492.97;;;7.26;100.00
59757;BME280;45631;51.962;5.974;2023-03-26T01:09:12;100495.66;;;7.25;100.00
59757;BME280;45631;51.962;5.974;2023-03-26T01:11:42;100487.81;;;7.25;100.00
59757;BME280;45631;51.962;5.974;2023-03-26T01:14:15;100484.47;;;7.23;100.00
59757;BME280;45631;51.962;5.974;2023-03-26T01:16:43;100493.13;;;7.23;100.00
59757;BME280;45631;51.962;5.974;2023-03-26T01:19:15;100491.44;;;7.22;100.00
59757;BME280;45631;51.962;5.974;2023-03-26T01:21:48;100486.13;;;7.24;100.00
59757;BME280;45631;51.962;5.974;2023-03-26T01:24:17;100478.22;;;7.25;100.00
59757;BME280;45631;51.962;5.974;2023-03-26T01:26:55;100471.19;;;7.26;100.00
59757;BME280;45631;51.962;5.974;2023-03-26T01:29:30;100468.50;;;7.27;100.00
59757;BME280;45631;51.962;5.974;2023-03-26T01:32:05;100468.59;;;7.26;100.00
59757;BME280;45631;51.962;5.974;2023-03-26T01:34:47;100465.88;;;7.27;100.00
59757;BME280;45631;51.962;5.974;2023-03-26T01:37:21;100458.91;;;7.28;100.00
59757;BME280;45631;51.962;5.974;2023-03-26T01:39:55;100465.78;;;7.29;100.00
59757;BME280;45631;51.962;5.974;2023-03-26T01:42:34;100451.69;;;7.32;100.00
59757;BME280;45631;51.962;5.974;2023-03-26T01:45:09;100452.47;;;7.34;100.00
59757;BME280;45631;51.962;5.974;2023-03-26T01:47:39;100440.13;;;7.36;100.00
59757;BME280;45631;51.962;5.974;2023-03-26T01:50:09;100438.38;;;7.36;100.00
59757;BME280;45631;51.962;5.974;2023-03-26T01:52:38;100442.53;;;7.39;100.00
59757;BME280;45631;51.962;5.974;2023-03-26T01:55:08;100436.28;;;7.41;100.00
59757;BME280;45631;51.962;5.974;2023-03-26T01:57:49;100433.78;;;7.40;100.00
59757;BME280;45631;51.962;5.974;2023-03-26T02:00:24;100437.25;;;7.40;100.00
59757;BME280;45631;51.962;5.974;2023-03-26T02:03:03;100432.84;;;7.41;100.00
59757;BME280;45631;51.962;5.974;2023-03-26T02:05:49;100427.53;;;7.42;100.00
59757;BME280;45631;51.962;5.974;2023-03-26T02:08:22;100427.34;;;7.45;100.00
59757;BME280;45631;51.962;5.974;2023-03-26T02:10:55;100423.88;;;7.45;100.00
59757;BME280;45631;51.962;5.974;2023-03-26T02:13:25;100421.28;;;7.45;100.00
59757;BME280;45631;51.962;5.974;2023-03-26T02:15:55;100405.56;;;7.45;100.00
59757;BME280;45631;51.962;5.974;2023-03-26T02:18:24;100410.41;;;7.37;100.00
59757;BME280;45631;51.962;5.974;2023-03-26T02:21:04;100406.69;;;7.41;100.00
59757;BME280;45631;51.962;5.974;2023-03-26T02:23:35;100403.16;;;7.42;100.00
59757;BME280;45631;51.962;5.974;2023-03-26T02:26:06;100404.47;;;7.49;100.00
59757;BME280;45631;51.962;5.974;2023-03-26T02:28:35;100402.13;;;7.44;100.00
59757;BME280;45631;51.962;5.974;2023-03-26T02:31:04;100390.78;;;7.44;100.00
59757;BME280;45631;51.962;5.974;2023-03-26T02:33:35;100397.63;;;7.47;100.00
59757;BME280;45631;51.962;5.974;2023-03-26T02:36:04;100390.59;;;7.47;100.00
59757;BME280;45631;51.962;5.974;2023-03-26T02:38:34;100385.31;;;7.49;100.00
59757;BME280;45631;51.962;5.974;2023-03-26T02:41:03;100390.44;;;7.50;100.00
59757;BME280;45631;51.962;5.974;2023-03-26T02:43:34;100380.91;;;7.49;100.00
59757;BME280;45631;51.962;5.974;2023-03-26T02:46:03;100381.75;;;7.50;100.00
59757;BME280;45631;51.962;5.974;2023-03-26T02:48:31;100374.84;;;7.49;100.00
59757;BME280;45631;51.962;5.974;2023-03-26T02:51:00;100384.53;;;7.47;100.00
59757;BME280;45631;51.962;5.974;2023-03-26T02:53:30;100375.78;;;7.48;100.00
59757;BME280;45631;51.962;5.974;2023-03-26T02:55:59;100374.91;;;7.47;100.00
59757;BME280;45631;51.962;5.974;2023-03-26T02:58:27;100377.53;;;7.47;100.00
59757;BME280;45631;51.962;5.974;2023-03-26T03:00:57;100374.84;;;7.49;100.00
59757;BME280;45631;51.962;5.974;2023-03-26T03:03:26;100377.53;;;7.47;100.00
59757;BME280;45631;51.962;5.974;2023-03-26T03:05:56;100367.06;;;7.47;100.00
59757;BME280;45631;51.962;5.974;2023-03-26T03:08:26;100361.75;;;7.49;100.00
59757;BME280;45631;51.962;5.974;2023-03-26T03:10:56;100362.59;;;7.49;100.00
59757;BME280;45631;51.962;5.974;2023-03-26T03:13:24;100359.41;;;7.44;100.00
59757;BME280;45631;51.962;5.974;2023-03-26T03:15:56;100355.75;;;7.47;100.00
59757;BME280;45631;51.962;5.974;2023-03-26T03:18:24;100360.75;;;7.51;100.00
59757;BME280;45631;51.962;5.974;2023-03-26T03:20:52;100350.34;;;7.50;100.00
59757;BME280;45631;51.962;5.974;2023-03-26T03:23:20;100354.94;;;7.46;100.00
59757;BME280;45631;51.962;5.974;2023-03-26T03:25:48;100350.34;;;7.50;100.00
59757;BME280;45631;51.962;5.974;2023-03-26T03:28:18;100347.91;;;7.47;100.00
59757;BME280;45631;51.962;5.974;2023-03-26T03:30:46;100331.19;;;7.49;100.00
59757;BME280;45631;51.962;5.974;2023-03-26T03:33:16;100334.56;;;7.51;100.00
59757;BME280;45631;51.962;5.974;2023-03-26T03:35:46;100331.94;;;7.51;100.00
59757;BME280;45631;51.962;5.974;2023-03-26T03:38:15;100337.09;;;7.53;100.00
59757;BME280;45631;51.962;5.974;2023-03-26T03:40:47;100335.31;;;7.53;100.00
59757;BME280;45631;51.962;5.974;2023-03-26T03:43:15;100330.91;;;7.54;100.00
59757;BME280;45631;51.962;5.974;2023-03-26T03:45:43;100328.38;;;7.52;100.00
59757;BME280;45631;51.962;5.974;2023-03-26T03:48:17;100332.69;;;7.53;100.00
59757;BME280;45631;51.962;5.974;2023-03-26T03:50:45;100331.75;;;7.54;100.00
59757;BME280;45631;51.962;5.974;2023-03-26T03:53:13;100329.72;;;7.59;100.00
59757;BME280;45631;51.962;5.974;2023-03-26T03:55:42;100326.25;;;7.59;100.00
59757;BME280;45631;51.962;5.974;2023-03-26T03:58:19;100329.72;;;7.59;100.00
59757;BME280;45631;51.962;5.974;2023-03-26T04:00:51;100331.56;;;7.57;100.00
59757;BME280;45631;51.962;5.974;2023-03-26T04:03:20;100320.91;;;7.60;100.00
59757;BME280;45631;51.962;5.974;2023-03-26T04:06:00;100316.06;;;7.54;100.00
59757;BME280;45631;51.962;5.974;2023-03-26T04:08:28;100310.53;;;7.59;100.00
59757;BME280;45631;51.962;5.974;2023-03-26T04:10:56;100310.44;;;7.60;100.00
59757;BME280;45631;51.962;5.974;2023-03-26T04:13:24;100312.13;;;7.61;100.00
59757;BME280;45631;51.962;5.974;2023-03-26T04:15:52;100306.78;;;7.63;100.00
59757;BME280;45631;51.962;5.974;2023-03-26T04:18:25;100302.41;;;7.64;100.00
59757;BME280;45631;51.962;5.974;2023-03-26T04:20:53;100291.94;;;7.64;100.00
59757;BME280;45631;51.962;5.974;2023-03-26T04:23:21;100294.56;;;7.64;100.00
59757;BME280;45631;51.962;5.974;2023-03-26T04:25:53;100292.88;;;7.63;100.00
59757;BME280;45631;51.962;5.974;2023-03-26T04:28:26;100286.78;;;7.62;100.00
59757;BME280;45631;51.962;5.974;2023-03-26T04:30:58;100285.47;;;7.55;100.00
59757;BME280;45631;51.962;5.974;2023-03-26T04:33:30;100285.28;;;7.58;100.00
59757;BME280;45631;51.962;5.974;2023-03-26T04:36:00;100292.50;;;7.54;100.00
59757;BME280;45631;51.962;5.974;2023-03-26T04:38:30;100282.03;;;7.54;100.00
59757;BME280;45631;51.962;5.974;2023-03-26T04:40:59;100279.41;;;7.54;100.00
59757;BME280;45631;51.962;5.974;2023-03-26T04:43:30;100273.34;;;7.54;100.00
59757;BME280;45631;51.962;5.974;2023-03-26T04:46:01;100272.41;;;7.55;100.00
59757;BME280;45631;51.962;5.974;2023-03-26T04:48:31;100271.00;;;7.49;100.00
59757;BME280;45631;51.962;5.974;2023-03-26T04:51:02;100259.41;;;7.53;100.00
59757;BME280;45631;51.962;5.974;2023-03-26T04:53:33;100263.72;;;7.54;100.00
59757;BME280;45631;51.962;5.974;2023-03-26T04:56:06;100260.25;;;7.54;100.00
59757;BME280;45631;51.962;5.974;2023-03-26T04:58:35;100254.09;;;7.55;100.00
59757;BME280;45631;51.962;5.974;2023-03-26T05:01:04;100253.97;;;7.56;100.00
59757;BME280;45631;51.962;5.974;2023-03-26T05:03:37;100248.47;;;7.61;100.00
59757;BME280;45631;51.962;5.974;2023-03-26T05:06:10;100245.00;;;7.60;100.00
59757;BME280;45631;51.962;5.974;2023-03-26T05:08:38;100242.28;;;7.62;100.00
59757;BME280;45631;51.962;5.974;2023-03-26T05:11:10;100238.03;;;7.61;100.00
59757;BME280;45631;51.962;5.974;2023-03-26T05:13:38;100238.84;;;7.61;100.00
59757;BME280;45631;51.962;5.974;2023-03-26T05:16:10;100237.81;;;7.64;100.00
59757;BME280;45631;51.962;5.974;2023-03-26T05:18:39;100235.31;;;7.63;100.00
59757;BME280;45631;51.962;5.974;2023-03-26T05:21:07;100237.91;;;7.63;100.00
59757;BME280;45631;51.962;5.974;2023-03-26T05:23:36;100227.34;;;7.64;100.00
59757;BME280;45631;51.962;5.974;2023-03-26T05:26:05;100226.53;;;7.64;100.00
59757;BME280;45631;51.962;5.974;2023-03-26T05:28:33;100230.78;;;7.65;100.00
59757;BME280;45631;51.962;5.974;2023-03-26T05:31:02;100215.19;;;7.63;100.00
59757;BME280;45631;51.962;5.974;2023-03-26T05:33:31;100215.19;;;7.63;100.00
59757;BME280;45631;51.962;5.974;2023-03-26T05:36:01;100205.59;;;7.64;100.00
59757;BME280;45631;51.962;5.974;2023-03-26T05:38:30;100211.00;;;7.60;100.00
59757;BME280;45631;51.962;5.974;2023-03-26T05:40:58;100204.81;;;7.61;100.00
59757;BME280;45631;51.962;5.974;2023-03-26T05:43:27;100198.84;;;7.59;100.00
59757;BME280;45631;51.962;5.974;2023-03-26T05:45:56;100203.13;;;7.60;100.00
59757;BME280;45631;51.962;5.974;2023-03-26T05:48:25;100199.69;;;7.60;100.00
59757;BME280;45631;51.962;5.974;2023-03-26T05:50:54;100188.66;;;7.55;100.00
59757;BME280;45631;51.962;5.974;2023-03-26T05:53:25;100181.66;;;7.55;100.00
59757;BME280;45631;51.962;5.974;2023-03-26T05:55:54;100184.34;;;7.54;100.00
59757;BME280;45631;51.962;5.974;2023-03-26T05:58:24;100180.19;;;7.51;100.00
59757;BME280;45631;51.962;5.974;2023-03-26T06:00:56;100175.69;;;7.53;100.00
59757;BME280;45631;51.962;5.974;2023-03-26T06:03:24;100171.78;;;7.46;100.00
59757;BME280;45631;51.962;5.974;2023-03-26T06:05:56;100169.06;;;7.48;100.00
59757;BME280;45631;51.962;5.974;2023-03-26T06:08:25;100162.34;;;7.43;100.00
59757;BME280;45631;51.962;5.974;2023-03-26T06:10:57;100162.91;;;7.49;100.00
59757;BME280;45631;51.962;5.974;2023-03-26T06:13:26;100152.50;;;7.47;100.00
59757;BME280;45631;51.962;5.974;2023-03-26T06:15:54;100152.44;;;7.49;100.00
59757;BME280;45631;51.962;5.974;2023-03-26T06:18:23;100143.00;;;7.46;100.00
59757;BME280;45631;51.962;5.974;2023-03-26T06:20:51;100138.50;;;7.48;100.00
59757;BME280;45631;51.962;5.974;2023-03-26T06:23:20;100138.50;;;7.48;100.00
59757;BME280;45631;51.962;5.974;2023-03-26T06:25:50;100135.78;;;7.50;100.00
59757;BME280;45631;51.962;5.974;2023-03-26T06:28:18;100127.94;;;7.50;100.00
59757;BME280;45631;51.962;5.974;2023-03-26T06:30:46;100124.47;;;7.49;100.00
59757;BME280;45631;51.962;5.974;2023-03-26T06:33:15;100123.56;;;7.50;100.00
59757;BME280;45631;51.962;5.974;2023-03-26T06:35:44;100128.03;;;7.48;100.00
59757;BME280;45631;51.962;5.974;2023-03-26T06:38:12;100134.13;;;7.49;100.00
59757;BME280;45631;51.962;5.974;2023-03-26T06:40:40;100128.03;;;7.48;100.00
59757;BME280;45631;51.962;5.974;2023-03-26T06:43:10;100130.63;;;7.48;100.00
59757;BME280;45631;51.962;5.974;2023-03-26T06:45:38;100133.25;;;7.48;100.00
59757;BME280;45631;51.962;5.974;2023-03-26T06:48:06;100132.97;;;7.53;100.00
59757;BME280;45631;51.962;5.974;2023-03-26T06:50:34;100131.09;;;7.55;100.00
59757;BME280;45631;51.962;5.974;2023-03-26T06:53:02;100131.94;;;7.55;100.00
59757;BME280;45631;51.962;5.974;2023-03-26T06:55:33;100130.06;;;7.57;100.00
59757;BME280;45631;51.962;5.974;2023-03-26T06:58:01;100127.66;;;7.54;100.00
59757;BME280;45631;51.962;5.974;2023-03-26T07:00:30;100133.44;;;7.59;100.00
59757;BME280;45631;51.962;5.974;2023-03-26T07:02:58;100132.56;;;7.59;100.00
59757;BME280;45631;51.962;5.974;2023-03-26T07:05:26;100135.09;;;7.60;100.00
59757;BME280;45631;51.962;5.974;2023-03-26T07:07:54;100129.59;;;7.65;100.00
59757;BME280;45631;51.962;5.974;2023-03-26T07:10:22;100128.00;;;7.63;100.00
59757;BME280;45631;51.962;5.974;2023-03-26T07:12:52;100125.72;;;7.71;100.00
59757;BME280;45631;51.962;5.974;2023-03-26T07:15:20;100117.31;;;7.66;100.00
59757;BME280;45631;51.962;5.974;2023-03-26T07:17:49;100121.84;;;7.64;100.00
59757;BME280;45631;51.962;5.974;2023-03-26T07:20:17;100121.63;;;7.67;100.00
59757;BME280;45631;51.962;5.974;2023-03-26T07:22:46;100107.78;;;7.65;100.00
59757;BME280;45631;51.962;5.974;2023-03-26T07:25:16;100119.66;;;7.70;100.00
59757;BME280;45631;51.962;5.974;2023-03-26T07:27:54;100111.81;;;7.70;100.00
59757;BME280;45631;51.962;5.974;2023-03-26T07:30:34;100112.63;;;7.71;100.00
59757;BME280;45631;51.962;5.974;2023-03-26T07:33:13;100116.41;;;7.67;100.00
59757;BME280;45631;51.962;5.974;2023-03-26T07:35:49;100110.03;;;7.71;100.00
59757;BME280;45631;51.962;5.974;2023-03-26T07:38:32;100110.94;;;7.70;100.00
59757;BME280;45631;51.962;5.974;2023-03-26T07:41:07;100104.69;;;7.72;100.00
59757;BME280;45631;51.962;5.974;2023-03-26T07:43:56;100114.13;;;7.75;100.00
59757;BME280;45631;51.962;5.974;2023-03-26T07:46:29;100102.81;;;7.74;100.00
59757;BME280;45631;51.962;5.974;2023-03-26T07:49:01;100101.13;;;7.73;100.00
59757;BME280;45631;51.962;5.974;2023-03-26T07:51:31;100100.53;;;7.83;100.00
59757;BME280;45631;51.962;5.974;2023-03-26T07:53:59;100102.31;;;7.82;100.00
59757;BME280;45631;51.962;5.974;2023-03-26T07:56:33;100101.84;;;7.75;100.00
59757;BME280;45631;51.962;5.974;2023-03-26T07:59:19;100088.38;;;7.82;100.00
59757;BME280;45631;51.962;5.974;2023-03-26T08:02:02;100089.53;;;7.90;100.00
59757;BME280;45631;51.962;5.974;2023-03-26T08:04:54;100081.34;;;7.82;100.00
59757;BME280;45631;51.962;5.974;2023-03-26T08:07:33;100077.06;;;7.81;100.00
59757;BME280;45631;51.962;5.974;2023-03-26T08:10:11;100082.72;;;7.88;100.00
59757;BME280;45631;51.962;5.974;2023-03-26T08:12:51;100080.75;;;7.91;100.00
59757;BME280;45631;51.962;5.974;2023-03-26T08:15:26;100086.44;;;7.98;100.00
59757;BME280;45631;51.962;5.974;2023-03-26T08:18:01;100080.53;;;7.94;100.00
59757;BME280;45631;51.962;5.974;2023-03-26T08:20:38;100082.22;;;7.95;100.00
59757;BME280;45631;51.962;5.974;2023-03-26T08:23:16;100087.47;;;7.95;100.00
59757;BME280;45631;51.962;5.974;2023-03-26T08:25:56;100091.03;;;7.94;100.00
59757;BME280;45631;51.962;5.974;2023-03-26T08:28:44;100088.59;;;7.91;100.00
59757;BME280;45631;51.962;5.974;2023-03-26T08:31:26;100087.69;;;7.92;100.00
59757;BME280;45631;51.962;5.974;2023-03-26T08:34:01;100091.13;;;7.93;100.00
59757;BME280;45631;51.962;5.974;2023-03-26T08:36:31;100084.03;;;7.95;100.00
59757;BME280;45631;51.962;5.974;2023-03-26T08:38:59;100090.72;;;7.99;100.00
59757;BME280;45631;51.962;5.974;2023-03-26T08:48:09;100090.59;;;7.88;100.00
59757;BME280;45631;51.962;5.974;2023-03-26T08:57:26;100081.47;;;7.81;100.00
59757;BME280;45631;51.962;5.974;2023-03-26T09:00:16;100086.31;;;7.87;100.00
59757;BME280;45631;51.962;5.974;2023-03-26T09:09:24;100085.06;;;7.92;100.00
59757;BME280;45631;51.962;5.974;2023-03-26T09:12:38;100087.53;;;7.81;100.00
59757;BME280;45631;51.962;5.974;2023-03-26T09:22:10;100083.16;;;7.82;100.00
59757;BME280;45631;51.962;5.974;2023-03-26T09:28:05;100078.13;;;7.91;100.00
59757;BME280;45631;51.962;5.974;2023-03-26T09:31:05;100073.00;;;7.90;100.00
59757;BME280;45631;51.962;5.974;2023-03-26T09:33:52;100078.16;;;8.04;100.00
59757;BME280;45631;51.962;5.974;2023-03-26T09:36:52;100073.88;;;8.03;100.00
59757;BME280;45631;51.962;5.974;2023-03-26T09:39:34;100074.50;;;8.07;100.00
59757;BME280;45631;51.962;5.974;2023-03-26T09:42:09;100076.19;;;8.08;100.00
59757;BME280;45631;51.962;5.974;2023-03-26T09:45:23;100077.09;;;8.07;100.00
59757;BME280;45631;51.962;5.974;2023-03-26T09:48:18;100075.84;;;8.12;100.00
59757;BME280;45631;51.962;5.974;2023-03-26T09:50:59;100076.59;;;8.15;100.00
59757;BME280;45631;51.962;5.974;2023-03-26T09:53:46;100076.38;;;8.18;100.00
59757;BME280;45631;51.962;5.974;2023-03-26T09:56:26;100075.88;;;8.25;100.00
59757;BME280;45631;51.962;5.974;2023-03-26T10:02:01;100074.94;;;8.26;100.00
59757;BME280;45631;51.962;5.974;2023-03-26T10:07:55;100080.63;;;8.33;100.00
59757;BME280;45631;51.962;5.974;2023-03-26T10:10:30;100091.72;;;8.37;100.00
59757;BME280;45631;51.962;5.974;2023-03-26T10:13:07;100084.81;;;8.36;100.00
59757;BME280;45631;51.962;5.974;2023-03-26T10:15:54;100081.44;;;8.34;100.00
59757;BME280;45631;51.962;5.974;2023-03-26T10:18:33;100084.19;;;8.45;100.00
59757;BME280;45631;51.962;5.974;2023-03-26T10:21:08;100078.44;;;8.53;100.00
59757;BME280;45631;51.962;5.974;2023-03-26T10:24:00;100082.50;;;8.70;100.00
59757;BME280;45631;51.962;5.974;2023-03-26T10:26:46;100080.63;;;8.72;100.00
59757;BME280;45631;51.962;5.974;2023-03-26T10:30:02;100081.34;;;8.74;100.00
59757;BME280;45631;51.962;5.974;2023-03-26T10:32:46;100094.88;;;8.80;100.00
59757;BME280;45631;51.962;5.974;2023-03-26T10:35:27;100080.28;;;8.89;100.00
59757;BME280;45631;51.962;5.974;2023-03-26T10:38:08;100086.06;;;8.82;100.00
59757;BME280;45631;51.962;5.974;2023-03-26T10:40:47;100083.44;;;8.82;100.00
59757;BME280;45631;51.962;5.974;2023-03-26T10:46:57;100084.91;;;8.99;100.00
59757;BME280;45631;51.962;5.974;2023-03-26T10:52:52;100087.25;;;9.14;100.00
59757;BME280;45631;51.962;5.974;2023-03-26T10:55:26;100084.44;;;9.18;100.00
59757;BME280;45631;51.962;5.974;2023-03-26T10:57:57;100086.84;;;9.08;100.00
59757;BME280;45631;51.962;5.974;2023-03-26T11:00:27;100086.13;;;9.06;100.00
59757;BME280;45631;51.962;5.974;2023-03-26T11:05:58;100090.34;;;8.95;100.00
59757;BME280;45631;51.962;5.974;2023-03-26T11:08:38;100097.41;;;8.82;100.00
59757;BME280;45631;51.962;5.974;2023-03-26T11:11:19;100093.94;;;8.82;100.00
59757;BME280;45631;51.962;5.974;2023-03-26T11:13:57;100094.13;;;8.66;100.00
59757;BME280;45631;51.962;5.974;2023-03-26T11:16:34;100098.34;;;8.55;100.00
59757;BME280;45631;51.962;5.974;2023-03-26T11:19:15;100097.69;;;8.39;100.00
59757;BME280;45631;51.962;5.974;2023-03-26T11:21:50;100105.56;;;8.39;100.00
59757;BME280;45631;51.962;5.974;2023-03-26T11:27:16;100113.28;;;8.15;100.00
59757;BME280;45631;51.962;5.974;2023-03-26T11:29:59;100110.53;;;8.16;100.00
59757;BME280;45631;51.962;5.974;2023-03-26T11:32:36;100121.53;;;8.08;100.00
59757;BME280;45631;51.962;5.974;2023-03-26T11:35:06;100121.28;;;7.99;100.00
59757;BME280;45631;51.962;5.974;2023-03-26T11:37:40;100123.28;;;7.95;100.00
59757;BME280;45631;51.962;5.974;2023-03-26T11:40:13;100120.34;;;7.87;100.00
59757;BME280;45631;51.962;5.974;2023-03-26T11:42:46;100114.78;;;7.91;100.00
59757;BME280;45631;51.962;5.974;2023-03-26T11:45:18;100120.97;;;7.90;100.00
59757;BME280;45631;51.962;5.974;2023-03-26T11:47:52;100129.75;;;7.89;100.00
59757;BME280;45631;51.962;5.974;2023-03-26T11:50:26;100128.63;;;7.93;100.00
59757;BME280;45631;51.962;5.974;2023-03-26T11:52:58;100122.31;;;7.83;100.00
59757;BME280;45631;51.962;5.974;2023-03-26T11:55:31;100124.44;;;7.91;100.00
59757;BME280;45631;51.962;5.974;2023-03-26T11:58:00;100118.06;;;7.95;100.00
59757;BME280;45631;51.962;5.974;2023-03-26T12:00:31;100126.16;;;8.05;100.00
59757;BME280;45631;51.962;5.974;2023-03-26T12:03:00;100132.09;;;8.07;100.00
59757;BME280;45631;51.962;5.974;2023-03-26T12:05:28;100130.63;;;8.03;100.00
59757;BME280;45631;51.962;5.974;2023-03-26T12:08:01;100127.19;;;8.15;100.00
59757;BME280;45631;51.962;5.974;2023-03-26T12:10:32;100129.59;;;8.05;100.00
59757;BME280;45631;51.962;5.974;2023-03-26T12:13:22;100132.09;;;8.07;100.00
59757;BME280;45631;51.962;5.974;2023-03-26T12:15:56;100129.09;;;8.13;100.00
59757;BME280;45631;51.962;5.974;2023-03-26T12:18:26;100134.66;;;8.21;100.00
59757;BME280;45631;51.962;5.974;2023-03-26T12:21:05;100130.91;;;8.25;100.00
59757;BME280;45631;51.962;5.974;2023-03-26T12:23:38;100135.38;;;8.23;100.00
59757;BME280;45631;51.962;5.974;2023-03-26T12:26:14;100133.84;;;8.34;100.00
59757;BME280;45631;51.962;5.974;2023-03-26T12:28:44;100141.06;;;8.30;100.00
59757;BME280;45631;51.962;5.974;2023-03-26T12:31:14;100142.72;;;8.18;100.00
59757;BME280;45631;51.962;5.974;2023-03-26T12:33:49;100147.97;;;8.18;100.00
59757;BME280;45631;51.962;5.974;2023-03-26T12:36:21;100150.47;;;8.20;100.00
59757;BME280;45631;51.962;5.974;2023-03-26T12:38:52;100154.44;;;8.12;100.00
59757;BME280;45631;51.962;5.974;2023-03-26T12:41:42;100159.03;;;8.09;100.00
59757;BME280;45631;51.962;5.974;2023-03-26T12:44:33;100156.81;;;8.03;100.00
59757;BME280;45631;51.962;5.974;2023-03-26T12:47:24;100164.66;;;7.90;100.00
59757;BME280;45631;51.962;5.974;2023-03-26T12:50:14;100165.22;;;7.81;100.00
59757;BME280;45631;51.962;5.974;2023-03-26T12:52:58;100167.84;;;7.81;100.00
59757;BME280;45631;51.962;5.974;2023-03-26T12:55:39;100168.41;;;7.86;100.00
59757;BME280;45631;51.962;5.974;2023-03-26T12:58:24;100166.25;;;7.78;100.00
59757;BME280;45631;51.962;5.974;2023-03-26T13:01:03;100165.22;;;7.81;100.00
59757;BME280;45631;51.962;5.974;2023-03-26T13:03:47;100170.31;;;7.69;100.00
59757;BME280;45631;51.962;5.974;2023-03-26T13:06:30;100164.56;;;7.77;100.00
59757;BME280;45631;51.962;5.974;2023-03-26T13:09:32;100176.84;;;7.76;100.00
59757;BME280;45631;51.962;5.974;2023-03-26T13:12:11;100184.34;;;7.68;100.00
59757;BME280;45631;51.962;5.974;2023-03-26T13:14:55;100188.00;;;7.66;100.00
59757;BME280;45631;51.962;5.974;2023-03-26T13:17:32;100181.81;;;7.67;100.00
59757;BME280;45631;51.962;5.974;2023-03-26T13:20:07;100184.34;;;7.68;100.00
59757;BME280;45631;51.962;5.974;2023-03-26T13:22:44;100182.66;;;7.67;100.00
59757;BME280;45631;51.962;5.974;2023-03-26T13:25:25;100183.34;;;7.56;100.00
59757;BME280;45631;51.962;5.974;2023-03-26T13:28:08;100192.66;;;7.60;100.00
59757;BME280;45631;51.962;5.974;2023-03-26T13:30:45;100192.50;;;7.64;100.00
59757;BME280;45631;51.962;5.974;2023-03-26T13:33:25;100190.44;;;7.54;100.00
59757;BME280;45631;51.962;5.974;2023-03-26T13:35:59;100192.97;;;7.56;100.00
59757;BME280;45631;51.962;5.974;2023-03-26T13:38:57;100189.53;;;7.55;100.00
59757;BME280;45631;51.962;5.974;2023-03-26T13:41:41;100189.88;;;7.64;100.00
59757;BME280;45631;51.962;5.974;2023-03-26T13:44:18;100193.78;;;7.71;100.00
59757;BME280;45631;51.962;5.974;2023-03-26T13:46:52;100202.09;;;7.77;100.00
59757;BME280;45631;51.962;5.974;2023-03-26T13:49:28;100192.06;;;7.84;100.00
59757;BME280;45631;51.962;5.974;2023-03-26T13:52:07;100196.88;;;7.90;100.00
59757;BME280;45631;51.962;5.974;2023-03-26T13:54:42;100200.06;;;7.95;100.00
59757;BME280;45631;51.962;5.974;2023-03-26T13:57:17;100203.03;;;8.04;100.00
59757;BME280;45631;51.962;5.974;2023-03-26T13:59:52;100199.06;;;8.11;100.00
59757;BME280;45631;51.962;5.974;2023-03-26T14:02:29;100201.41;;;8.28;100.00
59757;BME280;45631;51.962;5.974;2023-03-26T14:05:04;100206.72;;;8.41;100.00
59757;BME280;45631;51.962;5.974;2023-03-26T14:07:37;100202.13;;;8.45;100.00
59757;BME280;45631;51.962;5.974;2023-03-26T14:10:11;100208.81;;;8.49;100.00
59757;BME280;45631;51.962;5.974;2023-03-26T14:12:53;100211.44;;;8.49;100.00
59757;BME280;45631;51.962;5.974;2023-03-26T14:15:27;100219.31;;;8.49;100.00